Elm Grove, Louisiana
Current Conditions -  °F | °C
As of 11:58 AM on Thursday 30 Oct 2014 (Local Time) from KBAD Reporting Station
Clear Clear  
Wind Chill: 20°   Ceiling: Unl
Heat Index: 20°   Visibility: 10mi
Dew Point:   Wind: 7mph
Humidity: 41%   Direction: 170°S
Pressure: 30.17"   Gusts: NA
Location:  32.35°N, 93.55°W
Report Text: KBAD 301658Z AUTO 17006KT 10SM CLR 21/07 A3017 RMK AO2 SLP219 T02050068
Loading
Personal Weather Stations






























Interactive Weather Map
Tropical Storm Tracking
New forecast layout! Learn more

10-Day Weather Forecast

Advertisements
Track Severe Weather on mobile